Time;durP1;ratioP1;P1;durP2;ratioP2;P2;SDS_P1;SDS_P2;PMS_P1;PMS_P2;Temp;Humidity;BMP_temperature;BMP_pressure;BME280_temperature;BME280_humidity;BME280_pressure;Samples;Min_cycle;Max_cycle;Signal;HPM_P1;HPM_P2
2022/04/22 00:00:13;;;;;;;28.13;15.27;;;;;;;11.97;65.75;94810.59;4993061;28;20045;-78
2022/04/22 00:02:39;;;;;;;25.08;15.52;;;;;;;12.04;65.78;94824.25;5015268;28;20091;-77
2022/04/22 00:05:05;;;;;;;31.40;16.08;;;;;;;12.06;65.88;94808.38;4993285;28;20041;-77
2022/04/22 00:07:30;;;;;;;22.73;15.82;;;;;;;11.95;65.97;94805.63;4992276;28;20074;-78
2022/04/22 00:09:56;;;;;;;32.05;16.35;;;;;;;11.83;66.18;94804.13;5024237;28;20030;-77
2022/04/22 00:12:21;;;;;;;25.02;15.20;;;;;;;11.80;66.32;94800.19;5016514;28;20045;-78
2022/04/22 00:14:48;;;;;;;25.00;15.80;;;;;;;11.74;66.74;94803.75;5008652;28;20035;-78
2022/04/22 00:17:13;;;;;;;27.00;16.30;;;;;;;11.76;66.87;94801.69;5006694;28;20046;-77
2022/04/22 00:19:38;;;;;;;36.35;16.85;;;;;;;11.80;67.64;94800.19;4991287;28;20485;-77
2022/04/22 00:22:04;;;;;;;25.48;15.50;;;;;;;11.72;67.24;94787.56;4991078;28;20031;-77
2022/04/22 00:24:34;;;;;;;26.15;15.90;;;;;;;11.66;67.49;94783.28;5006820;28;20096;-77
2022/04/22 00:27:02;;;;;;;26.23;14.88;;;;;;;11.52;67.89;94774.22;5005695;28;20037;-78
2022/04/22 00:29:27;;;;;;;22.35;13.98;;;;;;;11.44;67.99;94770.22;4992394;28;20042;-77
2022/04/22 00:31:53;;;;;;;27.27;14.00;;;;;;;11.41;68.22;94771.50;5007423;28;20471;-77
2022/04/22 00:34:18;;;;;;;17.90;13.85;;;;;;;11.42;67.74;94773.06;4992366;28;20018;-77
2022/04/22 00:36:44;;;;;;;20.63;14.77;;;;;;;11.46;67.82;94768.16;4991027;28;20409;-77
2022/04/22 00:39:09;;;;;;;27.83;15.95;;;;;;;11.49;67.70;94783.31;4991552;28;20410;-77
2022/04/22 00:41:34;;;;;;;29.60;15.70;;;;;;;11.58;67.47;94791.53;4990503;28;20027;-77
2022/04/22 00:44:00;;;;;;;17.73;13.60;;;;;;;11.67;67.16;94784.88;4975220;28;20462;-77
2022/04/22 00:46:25;;;;;;;27.23;13.68;;;;;;;11.64;66.99;94783.53;5014682;28;20038;-77
2022/04/22 00:48:51;;;;;;;29.02;15.23;;;;;;;11.61;67.05;94786.63;4991806;28;20150;-77
2022/04/22 00:51:16;;;;;;;19.20;14.02;;;;;;;11.66;67.00;94781.47;4991958;28;20022;-77
2022/04/22 00:53:44;;;;;;;22.52;13.95;;;;;;;11.73;66.73;94773.50;5015722;28;20030;-77
2022/04/22 00:56:12;;;;;;;24.73;14.10;;;;;;;11.75;66.84;94765.47;4988506;28;20031;-77
2022/04/22 00:58:42;;;;;;;28.48;14.43;;;;;;;11.73;66.35;94756.06;4991006;28;20112;-77
2022/04/22 01:01:07;;;;;;;26.13;14.48;;;;;;;11.70;67.09;94747.91;5015758;28;20097;-77
2022/04/22 01:03:32;;;;;;;24.70;14.48;;;;;;;11.72;66.77;94731.03;4992933;28;20129;-77
2022/04/22 01:11:31;;;;;;;21.45;14.77;;;;;;;11.75;67.36;94727.16;4990521;28;20045;-77
2022/04/22 01:13:57;;;;;;;21.08;13.30;;;;;;;11.68;67.27;94718.72;5006166;28;20034;-77
2022/04/22 01:16:23;;;;;;;24.65;13.85;;;;;;;11.52;67.32;94719.53;5013716;28;20053;-77
2022/04/22 01:18:48;;;;;;;25.27;15.10;;;;;;;11.55;67.74;94708.63;4991138;28;20026;-77
2022/04/22 01:21:16;;;;;;;22.65;14.88;;;;;;;11.63;67.94;94705.63;4990385;28;20026;-77
2022/04/22 01:23:42;;;;;;;20.10;13.73;;;;;;;11.54;68.33;94696.66;4989551;28;20038;-77
2022/04/22 01:26:07;;;;;;;21.10;14.20;;;;;;;11.39;68.08;94694.66;4991561;28;20041;-77
2022/04/22 01:28:33;;;;;;;24.63;14.70;;;;;;;11.34;68.40;94697.94;4990990;28;20466;-77
2022/04/22 01:30:59;;;;;;;29.10;13.20;;;;;;;11.28;68.78;94693.72;4991429;28;20023;-77
2022/04/22 01:33:24;;;;;;;23.85;14.32;;;;;;;11.25;68.39;94681.19;4973835;28;20037;-77
2022/04/22 01:35:49;;;;;;;29.40;15.38;;;;;;;11.17;69.37;94668.56;5006232;28;20530;-77
2022/04/22 01:38:15;;;;;;;19.05;12.77;;;;;;;11.15;68.90;94677.63;4990776;28;20941;-77
2022/04/22 01:40:40;;;;;;;20.40;13.80;;;;;;;11.19;68.99;94674.31;5013125;28;20078;-77
2022/04/22 01:43:06;;;;;;;14.00;10.05;;;;;;;11.23;68.51;94662.41;4989955;28;20042;-77
2022/04/22 01:45:31;;;;;;;18.45;11.32;;;;;;;11.30;68.77;94670.03;5005573;28;20035;-78
2022/04/22 01:47:57;;;;;;;19.30;11.82;;;;;;;11.41;68.36;94672.56;5006275;28;20069;-78
2022/04/22 01:50:23;;;;;;;21.05;12.02;;;;;;;11.50;68.12;94672.13;4990238;28;20121;-78
2022/04/22 01:52:49;;;;;;;19.70;13.85;;;;;;;11.50;68.04;94685.16;5006706;28;20030;-78
2022/04/22 01:55:14;;;;;;;28.23;17.48;;;;;;;11.54;69.23;94683.63;4989998;28;20547;-77
2022/04/22 01:57:39;;;;;;;22.10;13.57;;;;;;;11.53;69.22;94684.66;4989711;28;20501;-77
2022/04/22 02:00:06;;;;;;;28.58;14.68;;;;;;;11.53;69.29;94695.06;5006958;28;20478;-77
2022/04/22 02:02:31;;;;;;;25.65;15.98;;;;;;;11.49;69.74;94704.41;4989911;28;20038;-77
2022/04/22 02:04:57;;;;;;;33.78;24.48;;;;;;;11.51;69.26;94716.16;5005937;28;20041;-77
2022/04/22 02:07:22;;;;;;;65.90;43.55;;;;;;;11.45;69.91;94734.56;4990818;28;20030;-77
2022/04/22 02:09:47;;;;;;;55.13;33.30;;;;;;;11.46;69.58;94734.31;5005660;28;20038;-77
2022/04/22 02:14:47;;;;;;;26.85;17.15;;;;;;;11.36;69.51;94740.16;5011146;23;20050;-77
2022/04/22 02:17:13;;;;;;;25.58;17.92;;;;;;;11.35;69.47;94735.97;4991380;28;20391;-77
2022/04/22 02:19:40;;;;;;;25.27;17.60;;;;;;;11.35;69.27;94746.38;4990518;28;20034;-77
2022/04/22 02:22:05;;;;;;;22.77;15.48;;;;;;;11.33;68.72;94738.03;5004600;28;20117;-77
2022/04/22 02:24:31;;;;;;;23.67;13.20;;;;;;;11.30;69.13;94727.31;4964796;28;20030;-78
2022/04/22 02:29:40;;;;;;;23.27;15.20;;;;;;;11.34;69.12;94718.78;4975500;28;20093;-77
2022/04/22 02:34:44;;;;;;;19.25;14.07;;;;;;;11.07;70.49;94704.84;4985276;23;20045;-78
2022/04/22 02:37:10;;;;;;;20.67;13.63;;;;;;;10.87;71.47;94696.72;4969986;28;20034;-78
2022/04/22 02:39:36;;;;;;;23.60;14.45;;;;;;;10.77;71.84;94695.53;4969101;28;20042;-78
2022/04/22 02:47:14;;;;;;;27.45;18.13;;;;;;;10.50;73.68;94702.34;4978582;28;20038;-78
2022/04/22 02:49:44;;;;;;;24.75;16.45;;;;;;;10.54;74.22;94708.66;4980125;28;20841;-77
2022/04/22 02:52:13;;;;;;;27.73;18.23;;;;;;;10.65;73.65;94705.22;4979387;28;20525;-77
2022/04/22 02:54:38;;;;;;;30.10;19.10;;;;;;;10.67;73.39;94708.34;4971153;28;20045;-77
2022/04/22 02:57:04;;;;;;;23.17;15.18;;;;;;;10.61;73.21;94708.50;4977746;28;20043;-77
2022/04/22 02:59:29;;;;;;;20.67;13.52;;;;;;;10.53;72.97;94699.25;4962495;28;20046;-78
2022/04/22 03:01:55;;;;;;;22.27;12.95;;;;;;;10.46;72.33;94706.44;4961331;28;20035;-78
2022/04/22 03:04:21;;;;;;;20.80;15.00;;;;;;;10.50;72.29;94697.13;4962770;28;20113;-77
2022/04/22 03:06:46;;;;;;;23.27;14.85;;;;;;;10.51;72.21;94691.69;4979033;28;20504;-78
2022/04/22 03:09:11;;;;;;;20.27;13.93;;;;;;;10.43;72.68;94701.72;4980597;28;20026;-78
2022/04/22 03:11:37;;;;;;;21.83;12.50;;;;;;;10.43;72.18;94705.09;4962784;28;20035;-78
2022/04/22 03:14:05;;;;;;;21.02;14.27;;;;;;;10.50;72.54;94705.72;4978787;28;20042;-77
2022/04/22 03:16:31;;;;;;;25.33;14.05;;;;;;;10.61;72.46;94706.69;4979286;28;20045;-78
2022/04/22 03:18:56;;;;;;;20.38;13.75;;;;;;;10.68;71.95;94699.53;4962851;28;20035;-79
2022/04/22 03:21:25;;;;;;;26.27;13.98;;;;;;;10.72;71.46;94716.22;4981236;28;20034;-78
2022/04/22 03:23:51;;;;;;;20.75;15.57;;;;;;;10.88;71.64;94725.09;4977612;28;20039;-77
2022/04/22 03:26:16;;;;;;;35.90;22.83;;;;;;;10.96;71.24;94723.91;4977038;28;20165;-77
2022/04/22 03:28:42;;;;;;;34.35;23.90;;;;;;;11.02;71.32;94725.56;4980921;28;20105;-78
2022/04/22 03:31:07;;;;;;;43.58;24.80;;;;;;;11.03;71.58;94732.34;4981022;28;20030;-79
2022/04/22 03:33:32;;;;;;;66.18;38.70;;;;;;;11.09;71.61;94731.41;4979113;28;20035;-78
2022/04/22 03:35:58;;;;;;;80.85;43.05;;;;;;;11.10;71.59;94727.78;4979634;28;20027;-78
2022/04/22 03:38:23;;;;;;;77.82;42.08;;;;;;;11.14;71.34;94723.69;4980435;28;20046;-78
2022/04/22 03:40:50;;;;;;;82.65;50.50;;;;;;;11.23;70.87;94721.50;4978717;28;20030;-77
2022/04/22 03:43:16;;;;;;;78.82;42.75;;;;;;;11.23;71.06;94740.50;4961282;28;20035;-77
2022/04/22 03:45:41;;;;;;;63.75;36.78;;;;;;;11.26;71.04;94736.63;4961402;28;20077;-78
2022/04/22 03:48:07;;;;;;;54.17;34.20;;;;;;;11.22;71.27;94741.50;4977107;28;20402;-77
2022/04/22 03:50:33;;;;;;;51.00;33.45;;;;;;;11.24;70.73;94741.28;4981163;28;20046;-77
2022/04/22 03:52:59;;;;;;;60.83;32.75;;;;;;;11.23;71.43;94732.69;4966198;28;20037;-77
2022/04/22 03:55:24;;;;;;;50.97;28.60;;;;;;;11.27;71.27;94733.00;4981407;28;20046;-77
2022/04/22 04:00:33;;;;;;;51.15;28.75;;;;;;;11.25;70.71;94735.84;4983259;28;20101;-77
2022/04/22 04:02:59;;;;;;;49.33;31.20;;;;;;;11.28;70.83;94750.19;4965491;28;20039;-76
2022/04/22 04:05:24;;;;;;;63.22;33.53;;;;;;;11.33;71.14;94743.22;4965374;28;20035;-77
2022/04/22 04:07:50;;;;;;;68.55;42.90;;;;;;;11.25;71.17;94735.06;4981581;28;20121;-78
2022/04/22 04:15:58;;;;;;;72.90;40.70;;;;;;;11.35;70.89;94722.16;4981666;28;20092;-77
2022/04/22 04:18:31;;;;;;;65.90;39.58;;;;;;;11.37;70.87;94726.09;4983593;28;20117;-78
2022/04/22 04:23:42;;;;;;;65.63;38.58;;;;;;;11.38;71.36;94719.09;4990370;28;20105;-78
2022/04/22 04:26:07;;;;;;;53.33;33.90;;;;;;;11.38;71.31;94724.28;4984850;28;20042;-78
2022/04/22 04:28:34;;;;;;;65.82;39.30;;;;;;;11.36;71.26;94714.13;4967237;28;20046;-78
2022/04/22 04:31:01;;;;;;;29.63;20.88;;;;;;;11.42;71.25;94723.59;4966699;28;20035;-78
2022/04/22 04:33:27;;;;;;;45.85;26.05;;;;;;;11.41;71.40;94708.22;4984622;28;20034;-78
2022/04/22 04:35:53;;;;;;;31.75;21.83;;;;;;;11.43;70.84;94725.16;4983138;28;20085;-78
2022/04/22 04:38:20;;;;;;;24.13;15.98;;;;;;;11.50;70.23;94703.38;4986503;28;20400;-78
2022/04/22 04:40:45;;;;;;;21.02;15.07;;;;;;;11.43;69.56;94706.94;4985827;28;20112;-78
2022/04/22 04:43:19;;;;;;;19.75;13.88;;;;;;;11.34;69.09;94700.56;4969009;28;20030;-78
2022/04/22 04:45:45;;;;;;;22.83;12.60;;;;;;;11.19;68.41;94710.75;4967029;28;20042;-78
2022/04/22 04:48:11;;;;;;;22.65;13.23;;;;;;;11.31;68.54;94718.47;4984048;28;20498;-78
2022/04/22 04:50:41;;;;;;;20.83;14.63;;;;;;;11.40;68.82;94717.84;4989114;28;20070;-78
2022/04/22 04:53:07;;;;;;;19.73;13.95;;;;;;;11.45;68.14;94708.53;4985869;28;20487;-78
2022/04/22 04:55:32;;;;;;;31.40;18.88;;;;;;;11.51;68.67;94707.56;4985610;28;20041;-78
2022/04/22 04:57:57;;;;;;;43.08;24.23;;;;;;;11.61;69.27;94702.50;4987838;28;20040;-78
2022/04/22 05:00:23;;;;;;;36.00;20.70;;;;;;;11.67;69.34;94706.72;4987752;28;20035;-78
2022/04/22 05:02:48;;;;;;;25.48;15.77;;;;;;;11.70;67.47;94701.03;4982705;28;20050;-78
2022/04/22 05:05:14;;;;;;;18.00;13.52;;;;;;;11.65;67.64;94708.78;4983125;28;20057;-78
2022/04/22 05:07:55;;;;;;;22.30;13.02;;;;;;;11.54;67.46;94675.81;4985340;28;20106;-77
2022/04/22 05:10:20;;;;;;;17.65;12.45;;;;;;;11.60;67.44;94685.28;4983838;28;20045;-77
2022/04/22 05:12:49;;;;;;;19.33;12.90;;;;;;;11.61;66.79;94671.25;4989674;28;20482;-78
2022/04/22 05:15:15;;;;;;;18.73;12.70;;;;;;;11.60;66.74;94680.09;4985796;28;20035;-77
2022/04/22 05:17:41;;;;;;;20.75;12.82;;;;;;;11.52;66.00;94663.03;4981280;28;20538;-78
2022/04/22 05:20:08;;;;;;;24.25;14.23;;;;;;;11.45;67.22;94666.84;4983134;28;20062;-78
2022/04/22 05:22:33;;;;;;;18.00;13.13;;;;;;;11.24;67.03;94645.75;4980775;28;20046;-78
2022/04/22 05:24:59;;;;;;;15.20;12.88;;;;;;;11.17;67.27;94639.94;4981098;28;20049;-78
2022/04/22 05:27:24;;;;;;;17.52;12.10;;;;;;;11.02;68.00;94637.09;4981483;28;20035;-77
2022/04/22 05:32:36;;;;;;;19.73;12.82;;;;;;;11.03;68.00;94608.25;4980868;28;20045;-77
2022/04/22 05:35:06;;;;;;;17.42;12.10;;;;;;;10.95;67.46;94602.66;4980699;28;20201;-77
2022/04/22 05:37:47;;;;;;;23.70;11.82;;;;;;;10.90;67.36;94595.59;4987313;28;20050;-77
2022/04/22 05:40:14;;;;;;;27.83;13.07;;;;;;;10.89;67.45;94575.00;4985785;28;20121;-78
2022/04/22 05:42:39;;;;;;;14.65;11.05;;;;;;;10.70;67.60;94540.66;4964088;28;20380;-77
2022/04/22 05:45:06;;;;;;;22.55;11.35;;;;;;;10.50;68.17;94551.56;4980008;28;20034;-78
2022/04/22 05:47:32;;;;;;;17.55;11.52;;;;;;;10.51;67.92;94537.53;4982558;28;20038;-78
2022/04/22 05:49:57;;;;;;;15.25;10.88;;;;;;;10.63;67.73;94520.03;4981160;28;20030;-76
2022/04/22 05:52:23;;;;;;;14.77;10.88;;;;;;;10.49;67.83;94529.97;4983231;28;20414;-78
2022/04/22 05:54:49;;;;;;;12.93;10.98;;;;;;;10.70;66.82;94538.84;4983055;28;20045;-78
2022/04/22 05:57:14;;;;;;;14.25;10.38;;;;;;;10.83;66.85;94533.31;4964793;28;20117;-78
2022/04/22 05:59:41;;;;;;;17.10;11.80;;;;;;;10.89;66.64;94528.16;4985225;28;20102;-79
2022/04/22 06:02:06;;;;;;;17.23;10.45;;;;;;;10.96;66.35;94528.81;4986434;28;20030;-79
2022/04/22 06:04:32;;;;;;;18.30;11.02;;;;;;;11.02;65.73;94540.84;4988175;28;20034;-79
2022/04/22 06:06:58;;;;;;;18.10;12.60;;;;;;;11.17;65.66;94529.84;4986777;28;20027;-78
2022/04/22 06:12:08;;;;;;;19.90;10.95;;;;;;;11.19;64.94;94512.94;4971170;28;20042;-79
2022/04/22 06:14:34;;;;;;;15.65;11.85;;;;;;;11.14;65.93;94520.69;4985309;28;20038;-79
2022/04/22 06:16:59;;;;;;;13.43;10.35;;;;;;;11.12;65.88;94523.53;4984352;28;20042;-78
2022/04/22 06:19:25;;;;;;;17.27;11.80;;;;;;;11.25;64.85;94512.00;4988212;28;20041;-78
2022/04/22 06:21:50;;;;;;;13.85;11.05;;;;;;;11.35;64.84;94527.72;4987644;28;20112;-79
2022/04/22 06:24:16;;;;;;;17.85;11.02;;;;;;;11.60;63.79;94513.41;4984801;28;20042;-79
2022/04/22 06:26:41;;;;;;;18.92;11.45;;;;;;;11.81;62.97;94510.00;4969987;28;20038;-79
2022/04/22 06:29:10;;;;;;;18.48;11.65;;;;;;;11.98;63.02;94515.88;4970336;28;20053;-79
2022/04/22 06:31:39;;;;;;;15.02;11.07;;;;;;;12.60;61.32;94502.28;4971040;28;20042;-79
2022/04/22 06:34:04;;;;;;;20.85;12.90;;;;;;;13.08;58.59;94517.94;4993048;28;20046;-79
2022/04/22 06:36:30;;;;;;;22.80;13.15;;;;;;;13.75;57.06;94517.94;4985850;28;20505;-79
2022/04/22 06:38:59;;;;;;;17.10;11.90;;;;;;;14.45;55.19;94525.34;4970045;28;20045;-79
2022/04/22 06:45:46;;;;;;;17.27;9.70;;;;;;;15.57;51.49;94531.88;5002273;28;20057;-80
2022/04/22 06:47:13;;;;;;;15.82;9.35;;;;;;;15.99;50.83;94528.03;4985971;28;20398;-79
2022/04/22 06:49:40;;;;;;;10.13;8.75;;;;;;;16.11;49.82;94525.06;4968309;28;20566;-79
2022/04/22 06:52:06;;;;;;;15.27;8.05;;;;;;;15.61;49.13;94527.69;4985336;28;20094;-79
2022/04/22 06:54:32;;;;;;;10.85;7.80;;;;;;;15.56;49.01;94525.06;4984299;28;20084;-79
2022/04/22 06:56:59;;;;;;;9.98;7.80;;;;;;;15.16;50.34;94520.78;4983921;28;20031;-78
2022/04/22 06:59:24;;;;;;;12.38;6.63;;;;;;;15.55;49.51;94488.66;4967320;28;20542;-78
2022/04/22 07:01:50;;;;;;;12.35;7.22;;;;;;;15.57;48.88;94500.44;4965554;28;20046;-80
2022/04/22 07:04:16;;;;;;;13.68;7.60;;;;;;;15.04;50.32;94496.72;4967422;28;20532;-79
2022/04/22 07:06:42;;;;;;;9.52;8.25;;;;;;;15.29;50.31;94498.47;4983948;28;20042;-79
2022/04/22 07:09:10;;;;;;;12.25;7.47;;;;;;;15.79;48.94;94501.94;4977506;28;20045;-79
2022/04/22 07:11:35;;;;;;;10.30;7.43;;;;;;;16.15;48.64;94500.63;4968025;28;20027;-80
2022/04/22 07:14:01;;;;;;;15.60;7.95;;;;;;;16.58;47.94;94469.28;4968559;28;20035;-80
2022/04/22 07:16:27;;;;;;;15.25;8.00;;;;;;;17.10;46.64;94488.78;4983492;28;20041;-80
2022/04/22 07:18:53;;;;;;;11.40;7.07;;;;;;;17.19;45.55;94463.44;4995069;28;20034;-80
2022/04/22 07:21:19;;;;;;;12.27;6.95;;;;;;;16.87;45.96;94489.53;4986954;28;20031;-80
2022/04/22 07:23:45;;;;;;;12.98;7.18;;;;;;;17.38;45.20;94490.53;4985203;28;20034;-80
2022/04/22 07:26:10;;;;;;;16.52;7.55;;;;;;;17.65;44.64;94487.28;4983487;28;20050;-79
2022/04/22 07:28:39;;;;;;;10.68;6.32;;;;;;;17.95;43.92;94480.09;4986972;28;20038;-80
2022/04/22 07:31:05;;;;;;;12.77;6.60;;;;;;;17.84;43.41;94484.69;4989198;28;20080;-80
2022/04/22 07:33:31;;;;;;;7.18;5.88;;;;;;;17.83;43.91;94491.03;4972833;28;20480;-80
2022/04/22 07:35:57;;;;;;;10.95;5.78;;;;;;;17.97;43.22;94507.66;4985584;28;20049;-80
2022/04/22 07:38:24;;;;;;;12.43;5.20;;;;;;;17.56;43.41;94501.34;4969441;28;20034;-79
2022/04/22 07:40:51;;;;;;;7.35;5.45;;;;;;;17.82;42.49;94484.19;4984340;28;20042;-79
2022/04/22 07:48:52;;;;;;;10.70;6.60;;;;;;;17.98;41.93;94477.66;4972642;28;20041;-79
2022/04/22 07:51:17;;;;;;;;;;;;;;;18.04;41.89;94474.94;4994500;28;20548;-77
2022/04/22 07:53:43;;;;;;;10.50;5.05;;;;;;;18.13;42.29;94481.13;4983759;28;20369;-79
2022/04/22 07:56:08;;;;;;;10.13;5.35;;;;;;;18.73;41.33;94481.25;4981207;28;20031;-79
2022/04/22 07:58:34;;;;;;;14.05;5.85;;;;;;;19.09;40.36;94484.78;4971368;28;20054;-79
2022/04/22 08:00:59;;;;;;;6.85;5.57;;;;;;;19.36;39.97;94491.09;4987871;28;20026;-80
2022/04/22 08:03:26;;;;;;;11.07;5.72;;;;;;;19.17;40.00;94505.16;4984659;28;20043;-79
2022/04/22 08:05:51;;;;;;;9.52;5.72;;;;;;;19.25;39.54;94510.84;4987050;28;20023;-79
2022/04/22 08:08:17;;;;;;;6.45;5.55;;;;;;;19.34;39.97;94501.16;4986396;28;20193;-79
2022/04/22 08:10:42;;;;;;;13.32;5.80;;;;;;;19.65;39.22;94522.47;4986891;28;20030;-79
2022/04/22 08:13:08;;;;;;;9.32;5.57;;;;;;;19.74;39.24;94525.97;4968622;28;20031;-79
2022/04/22 08:15:34;;;;;;;9.85;5.78;;;;;;;19.33;39.74;94520.69;4982698;28;20641;-78
2022/04/22 08:18:03;;;;;;;7.03;5.38;;;;;;;19.31;39.54;94507.81;4967537;28;20034;-79
2022/04/22 08:20:32;;;;;;;10.25;5.70;;;;;;;19.04;40.29;94490.16;4993530;28;20663;-79
2022/04/22 08:22:59;;;;;;;8.85;5.90;;;;;;;18.94;40.95;94482.44;4989894;28;20039;-79
2022/04/22 08:25:24;;;;;;;7.80;5.55;;;;;;;18.87;40.95;94474.91;4968567;28;20479;-78
2022/04/22 08:27:51;;;;;;;9.13;5.70;;;;;;;18.97;41.53;94467.88;4966602;28;20034;-79
2022/04/22 08:30:16;;;;;;;10.85;5.70;;;;;;;19.02;40.87;94479.09;5006451;28;20031;-79
2022/04/22 08:32:42;;;;;;;15.48;5.43;;;;;;;19.12;40.86;94472.88;4968273;28;20030;-79
2022/04/22 08:35:08;;;;;;;8.38;5.72;;;;;;;19.25;41.21;94477.34;4982157;28;20043;-79
2022/04/22 08:37:34;;;;;;;6.65;5.28;;;;;;;19.41;40.80;94469.94;4981987;28;20035;-78
2022/04/22 08:39:59;;;;;;;8.15;5.65;;;;;;;19.48;40.17;94459.75;4983551;28;20089;-79
2022/04/22 08:42:25;;;;;;;17.55;5.93;;;;;;;19.66;41.26;94458.06;4985860;28;20043;-80
2022/04/22 08:44:51;;;;;;;16.90;6.20;;;;;;;19.47;40.29;94458.97;4970414;28;20066;-79
2022/04/22 08:50:06;;;;;;;11.68;5.55;;;;;;;19.52;40.27;94458.06;4981619;28;20069;-79
2022/04/22 08:52:33;;;;;;;5.65;5.00;;;;;;;19.24;40.93;94454.72;4969659;28;20149;-79
2022/04/22 08:55:00;;;;;;;10.73;5.20;;;;;;;19.26;40.62;94441.22;4973716;28;20093;-79
2022/04/22 08:57:28;;;;;;;9.90;5.55;;;;;;;19.56;40.29;94439.84;4984489;28;20034;-80
2022/04/22 09:00:00;;;;;;;13.38;4.80;;;;;;;19.85;40.03;94426.25;4999719;28;20050;-78
2022/04/22 09:02:26;;;;;;;9.98;4.30;;;;;;;20.01;39.49;94436.19;5012433;28;20038;-78
2022/04/22 09:04:51;;;;;;;8.02;4.88;;;;;;;19.76;40.47;94423.56;4976173;28;20039;-79
2022/04/22 09:07:18;;;;;;;16.30;4.72;;;;;;;19.40;40.99;94431.44;4968888;28;20037;-78
2022/04/22 09:09:49;;;;;;;5.53;4.30;;;;;;;19.49;40.24;94417.25;4968706;28;20042;-78
2022/04/22 09:12:20;;;;;;;6.85;4.65;;;;;;;19.40;40.32;94413.00;4968801;28;20525;-79
2022/04/22 09:14:47;;;;;;;7.15;4.57;;;;;;;19.67;40.47;94414.78;4982880;28;20042;-78
2022/04/22 09:17:17;;;;;;;19.02;5.65;;;;;;;19.79;40.04;94418.47;4966963;28;20031;-79
2022/04/22 09:19:44;;;;;;;15.90;5.28;;;;;;;19.61;39.55;94414.13;4981495;28;20042;-78
2022/04/22 09:22:09;;;;;;;6.97;4.25;;;;;;;19.49;39.79;94414.63;4964268;28;20089;-79
2022/04/22 09:25:01;;;;;;;9.60;4.35;;;;;;;19.76;39.31;94413.00;4989043;28;20451;-79
2022/04/22 09:27:37;;;;;;;10.02;4.78;;;;;;;19.60;39.72;94409.94;5006408;28;20058;-79
2022/04/22 09:30:07;;;;;;;11.57;4.72;;;;;;;19.21;40.89;94414.97;4983580;28;20057;-79
2022/04/22 09:32:35;;;;;;;8.75;4.53;;;;;;;18.62;42.17;94420.03;4967209;28;20046;-78
2022/04/22 09:35:20;;;;;;;7.35;5.05;;;;;;;18.34;43.27;94410.50;4984436;28;20034;-78
2022/04/22 09:43:32;;;;;;;14.50;5.20;;;;;;;17.50;45.55;94403.38;4983272;28;20044;-79
2022/04/22 09:45:57;;;;;;;12.30;5.05;;;;;;;17.73;44.63;94395.69;4946557;28;20034;-78
2022/04/22 09:48:24;;;;;;;9.30;4.55;;;;;;;17.96;43.83;94395.63;4983504;28;20035;-79
2022/04/22 09:50:52;;;;;;;12.93;4.47;;;;;;;18.28;43.28;94386.16;4981208;28;20057;-78
2022/04/22 09:53:32;;;;;;;10.02;4.80;;;;;;;18.45;43.65;94381.09;4966515;28;20037;-78
2022/04/22 09:55:57;;;;;;;10.05;4.60;;;;;;;18.39;43.62;94381.50;4983977;28;20026;-78
2022/04/22 09:58:25;;;;;;;9.40;4.90;;;;;;;18.18;43.75;94378.41;4968140;28;20029;-79
2022/04/22 10:01:01;;;;;;;8.07;4.97;;;;;;;18.00;44.15;94357.13;4968662;28;20061;-79
2022/04/22 10:03:29;;;;;;;7.13;4.32;;;;;;;17.99;44.42;94352.94;4968991;28;20034;-79
2022/04/22 10:05:54;;;;;;;8.52;4.80;;;;;;;18.27;44.52;94347.72;4983660;28;20026;-79
2022/04/22 10:08:21;;;;;;;8.23;4.93;;;;;;;18.46;43.61;94342.38;4984556;28;20486;-79
2022/04/22 10:10:47;;;;;;;16.17;5.82;;;;;;;18.40;43.95;94346.97;4967427;28;20037;-78
2022/04/22 10:13:15;;;;;;;9.43;4.85;;;;;;;18.46;43.17;94351.06;4966374;28;20031;-79
2022/04/22 10:15:41;;;;;;;13.00;5.22;;;;;;;18.44;43.59;94345.31;4968089;28;20038;-78
2022/04/22 10:18:11;;;;;;;10.20;4.90;;;;;;;18.43;43.57;94345.59;4968242;28;20027;-79
2022/04/22 10:20:37;;;;;;;7.97;5.15;;;;;;;18.37;43.81;94342.25;4982242;28;20022;-79
2022/04/22 10:23:03;;;;;;;10.88;5.55;;;;;;;17.96;44.60;94327.22;4968343;28;20033;-79
2022/04/22 10:25:29;;;;;;;9.13;5.03;;;;;;;18.06;44.46;94325.47;4974117;28;20026;-79
2022/04/22 10:27:57;;;;;;;7.45;5.03;;;;;;;18.36;43.81;94329.41;4984911;28;20041;-79
2022/04/22 10:30:22;;;;;;;12.65;5.20;;;;;;;18.38;44.01;94319.34;4970483;28;20018;-79
2022/04/22 10:32:48;;;;;;;9.57;6.00;;;;;;;17.92;45.12;94331.50;4992688;28;20401;-79
2022/04/22 10:35:14;;;;;;;8.40;5.18;;;;;;;17.81;46.08;94311.69;4987830;28;20036;-83
2022/04/22 10:37:41;;;;;;;13.10;4.85;;;;;;;18.09;45.24;94309.91;4976072;28;20034;-82
2022/04/22 10:40:17;;;;;;;15.23;3.92;;;;;;;18.37;45.08;94305.41;4992348;28;20030;-82
2022/04/22 10:42:42;;;;;;;9.95;4.68;;;;;;;18.15;44.66;94318.47;5001607;28;20053;-79
2022/04/22 10:47:53;;;;;;;29.50;17.15;;;;;;;18.02;45.70;94303.44;4995048;28;20046;-79
2022/04/22 10:50:28;;;;;;;46.88;23.40;;;;;;;18.32;44.35;94302.88;4984483;28;20026;-77
2022/04/22 10:53:07;;;;;;;9.65;4.60;;;;;;;18.30;44.05;94294.50;4985422;28;20027;-80
2022/04/22 10:55:37;;;;;;;7.45;4.43;;;;;;;18.55;44.20;94306.41;4981273;28;20045;-80
2022/04/22 10:58:20;;;;;;;12.48;4.60;;;;;;;18.89;43.81;94290.19;4966568;28;20121;-80
2022/04/22 11:00:54;;;;;;;8.32;4.10;;;;;;;18.91;43.44;94309.13;4982467;28;20109;-79
2022/04/22 11:03:31;;;;;;;9.77;4.18;;;;;;;19.15;42.69;94295.69;4988884;28;20041;-80
2022/04/22 11:06:06;;;;;;;22.08;4.15;;;;;;;19.40;42.43;94283.78;4984169;28;20073;-80
2022/04/22 11:08:32;;;;;;;14.93;5.78;;;;;;;19.48;42.44;94277.78;4975241;28;20125;-80
2022/04/22 11:11:05;;;;;;;14.43;4.07;;;;;;;19.56;40.93;94295.56;4982877;28;20061;-80
2022/04/22 11:13:38;;;;;;;8.60;4.22;;;;;;;19.69;40.51;94302.66;4977345;28;20430;-80
2022/04/22 11:16:32;;;;;;;5.43;3.72;;;;;;;19.89;39.78;94267.06;4983018;28;20034;-80
2022/04/22 11:19:19;;;;;;;6.28;3.88;;;;;;;20.05;40.14;94256.88;4985317;28;20042;-83
2022/04/22 11:21:46;;;;;;;33.70;17.02;;;;;;;20.11;39.72;94265.44;4983737;28;20026;-79
2022/04/22 11:24:18;;;;;;;10.90;4.22;;;;;;;20.20;39.83;94269.69;4981035;28;20038;-77
2022/04/22 11:26:45;;;;;;;13.75;4.00;;;;;;;20.26;40.07;94263.16;5002058;28;20023;-79
2022/04/22 11:29:11;;;;;;;10.20;3.55;;;;;;;20.34;40.19;94272.22;4981807;28;20039;-76
2022/04/22 11:31:36;;;;;;;10.32;4.15;;;;;;;20.47;39.33;94262.63;4985160;28;20035;-81
2022/04/22 11:34:13;;;;;;;10.93;4.18;;;;;;;20.57;38.79;94262.38;4986376;28;20038;-84
2022/04/22 11:36:43;;;;;;;7.00;3.42;;;;;;;20.56;38.57;94256.31;5012018;28;20038;-80
2022/04/22 11:39:12;;;;;;;12.57;4.13;;;;;;;20.78;38.78;94247.47;4985693;28;20078;-80
2022/04/22 11:41:49;;;;;;;9.77;4.88;;;;;;;20.78;38.04;94246.69;4968365;28;20038;-79
2022/04/22 11:44:19;;;;;;;15.45;3.97;;;;;;;20.81;38.50;94240.78;4980558;28;20038;-79
2022/04/22 11:46:46;;;;;;;12.15;4.00;;;;;;;20.73;38.86;94229.13;4983453;28;20050;-78
2022/04/22 11:49:11;;;;;;;15.82;4.18;;;;;;;20.74;38.30;94229.91;4981762;28;20030;-81
2022/04/22 11:51:37;;;;;;;18.65;4.22;;;;;;;20.64;38.29;94225.69;4986220;28;20046;-81
2022/04/22 11:54:03;;;;;;;8.93;3.78;;;;;;;20.61;38.53;94234.25;4985799;28;20041;-80
2022/04/22 11:56:29;;;;;;;15.52;4.55;;;;;;;20.61;38.27;94213.88;4986860;28;20050;-80
2022/04/22 11:58:55;;;;;;;10.18;3.60;;;;;;;20.68;38.26;94213.44;4969021;28;20218;-81
2022/04/22 12:06:58;;;;;;;11.18;3.75;;;;;;;20.80;37.58;94212.81;4984590;28;20062;-80
2022/04/22 12:09:25;;;;;;;5.57;3.65;;;;;;;20.69;38.13;94217.63;4984241;28;20031;-82
2022/04/22 12:11:51;;;;;;;12.00;3.90;;;;;;;20.79;37.84;94212.03;4967395;28;20065;-83
2022/04/22 12:14:24;;;;;;;8.50;3.63;;;;;;;20.88;37.60;94207.53;4984419;28;20038;-79
2022/04/22 12:16:59;;;;;;;13.05;4.10;;;;;;;20.95;37.54;94201.78;4987553;28;20090;-80
2022/04/22 12:19:26;;;;;;;8.52;3.60;;;;;;;21.02;37.77;94207.38;4983554;28;20537;-80
2022/04/22 12:21:52;;;;;;;13.40;4.35;;;;;;;21.08;38.02;94182.34;4985229;28;20463;-78